Time;durP1;ratioP1;P1;durP2;ratioP2;P2;SDS_P1;SDS_P2;PMS_P1;PMS_P2;Temp;Humidity;BMP_temperature;BMP_pressure;BME280_temperature;BME280_humidity;BME280_pressure;Samples;Min_cycle;Max_cycle;Signal;HPM_P1;HPM_P2
2021/06/15 14:58:53;;;;;;;11.33;4.22;;;;;;;25.78;57.02;99342.12;1781529;78;28294;-83
2021/06/15 15:01:21;;;;;;;14.85;3.90;;;;;;;25.74;57.35;99345.45;1736283;80;21139;-83
2021/06/15 15:03:49;;;;;;;8.78;3.72;;;;;;;25.72;57.24;99342.80;1771604;80;21191;-82
2021/06/15 15:06:17;;;;;;;6.72;3.58;;;;;;;25.68;56.31;99337.13;1744943;80;21164;-81
2021/06/15 15:08:47;;;;;;;9.53;3.98;;;;;;;25.64;55.58;99332.05;1707629;82;21187;-82
2021/06/15 15:11:15;;;;;;;6.53;3.72;;;;;;;25.58;55.41;99332.12;1708365;81;21162;-84
2021/06/15 15:13:45;;;;;;;14.07;3.67;;;;;;;25.55;55.25;99335.66;1720334;82;21458;-84
2021/06/15 15:16:14;;;;;;;5.37;3.35;;;;;;;25.50;55.37;99334.55;1717255;81;21135;-87
2021/06/15 15:18:45;;;;;;;9.55;3.33;;;;;;;25.45;54.64;99331.23;1717146;83;21329;-85
2021/06/15 15:21:13;;;;;;;6.35;3.02;;;;;;;25.39;54.67;99325.11;1715036;82;21123;-84
2021/06/15 15:23:46;;;;;;;7.72;3.25;;;;;;;25.32;53.56;99328.36;1716769;82;21207;-86
2021/06/15 15:26:14;;;;;;;8.93;3.20;;;;;;;25.23;54.07;99327.16;1731074;80;21142;-83
2021/06/15 15:28:42;;;;;;;8.48;3.30;;;;;;;25.13;54.29;99322.97;1744356;81;21135;-84
2021/06/15 15:31:10;;;;;;;12.37;3.27;;;;;;;25.06;54.40;99315.82;1731627;81;21634;-85
2021/06/15 15:33:38;;;;;;;6.05;3.00;;;;;;;24.99;54.41;99315.67;1733830;83;21838;-85
2021/06/15 15:36:07;;;;;;;7.75;3.47;;;;;;;24.93;54.60;99312.11;1728514;81;21645;-85
2021/06/15 15:38:36;;;;;;;8.00;3.60;;;;;;;24.86;54.88;99312.77;1731575;83;21314;-87
2021/06/15 15:41:07;;;;;;;9.33;3.60;;;;;;;24.81;55.27;99310.84;1733283;81;21195;-87
2021/06/15 15:43:37;;;;;;;7.95;3.37;;;;;;;24.76;55.54;99317.52;1731950;81;21160;-88
2021/06/15 15:46:07;;;;;;;10.53;3.25;;;;;;;24.72;55.77;99321.41;1730477;82;21310;-88
2021/06/15 15:48:36;;;;;;;17.10;4.35;;;;;;;24.69;55.92;99320.73;1720394;81;21245;-83
2021/06/15 15:51:10;;;;;;;12.70;4.35;;;;;;;24.64;56.67;99331.02;1716762;82;21245;-85
2021/06/15 15:53:39;;;;;;;12.13;3.75;;;;;;;24.60;56.55;99325.94;1726478;81;21546;-85
2021/06/15 15:56:09;;;;;;;8.03;3.40;;;;;;;24.56;56.65;99325.05;1745039;81;21618;-83
2021/06/15 15:58:39;;;;;;;9.83;3.20;;;;;;;24.52;56.53;99321.92;1722545;81;21180;-85
2021/06/15 16:01:08;;;;;;;14.45;3.62;;;;;;;24.47;56.81;99328.62;1726324;82;21179;-83
2021/06/15 16:03:36;;;;;;;12.00;3.72;;;;;;;24.45;56.86;99328.75;1720119;81;21179;-82
2021/06/15 16:06:04;;;;;;;10.70;3.80;;;;;;;24.42;56.73;99339.27;1731645;82;21176;-82
2021/06/15 16:08:32;;;;;;;10.38;3.60;;;;;;;24.39;56.90;99339.41;1730232;81;21152;-85
2021/06/15 16:11:00;;;;;;;11.33;3.85;;;;;;;24.38;57.07;99346.19;1729473;83;21245;-84
2021/06/15 16:13:28;;;;;;;9.78;3.83;;;;;;;24.36;57.60;99340.13;1710448;81;21148;-83
2021/06/15 16:15:57;;;;;;;9.68;3.70;;;;;;;24.33;57.28;99350.66;1727009;82;21136;-87
2021/06/15 16:18:26;;;;;;;9.15;3.60;;;;;;;24.29;57.65;99352.54;1728486;81;21171;-85
2021/06/15 16:20:54;;;;;;;7.92;3.70;;;;;;;24.26;57.50;99354.66;1724043;83;22984;-84
2021/06/15 16:23:21;;;;;;;9.58;4.15;;;;;;;24.26;57.65;99358.84;1728397;82;21188;-84
2021/06/15 16:25:50;;;;;;;12.68;4.37;;;;;;;24.26;57.29;99366.45;1728270;81;21160;-84
2021/06/15 16:28:17;;;;;;;11.57;4.22;;;;;;;24.27;57.50;99379.24;1742711;81;21160;-84
2021/06/15 16:30:47;;;;;;;11.08;3.62;;;;;;;24.25;57.72;99374.02;1717885;81;21144;-85
2021/06/15 16:33:15;;;;;;;11.80;4.28;;;;;;;24.25;57.83;99382.41;1721232;83;21175;-86
2021/06/15 16:35:43;;;;;;;12.93;4.30;;;;;;;24.23;58.60;99374.16;1738940;80;21175;-85
2021/06/15 16:38:12;;;;;;;8.28;3.65;;;;;;;24.20;58.06;99377.09;1750817;80;21775;-85
2021/06/15 16:40:40;;;;;;;10.72;3.95;;;;;;;24.17;57.66;99379.78;1742161;80;21676;-85
2021/06/15 16:43:08;;;;;;;14.95;4.60;;;;;;;24.15;58.11;99379.33;1736181;82;21144;-86
2021/06/15 16:45:35;;;;;;;13.10;4.45;;;;;;;24.11;58.44;99379.23;1724206;81;21202;-88
2021/06/15 16:48:04;;;;;;;;;;;;;;;24.07;58.13;99385.88;1729393;81;21164;-85
2021/06/15 16:50:33;;;;;;;11.40;4.20;;;;;;;24.03;58.31;99387.77;1733860;81;20563;-85
2021/06/15 16:53:01;;;;;;;9.18;3.85;;;;;;;23.97;58.57;99382.45;1736886;83;21159;-88
2021/06/15 16:55:31;;;;;;;11.03;4.28;;;;;;;23.95;58.12;99386.77;1734810;81;21282;-80
2021/06/15 16:58:02;;;;;;;9.33;3.72;;;;;;;23.90;57.51;99378.06;1772851;81;21735;-83
2021/06/15 17:00:29;;;;;;;7.72;3.52;;;;;;;23.87;57.25;99375.16;1745400;81;21266;-84
2021/06/15 17:02:57;;;;;;;10.43;3.62;;;;;;;23.83;56.92;99372.87;1728127;81;21144;-82
2021/06/15 17:05:25;;;;;;;23.20;5.62;;;;;;;23.79;56.89;99367.17;1731384;81;21184;-84
2021/06/15 17:07:53;;;;;;;15.38;5.35;;;;;;;23.75;57.78;99359.86;1735143;81;21144;-77
2021/06/15 17:10:23;;;;;;;16.60;4.47;;;;;;;23.70;57.58;99353.14;1741103;80;21144;-86
2021/06/15 17:12:51;;;;;;;16.62;5.17;;;;;;;23.64;57.78;99359.56;1750608;80;21184;-86
2021/06/15 17:15:20;;;;;;;21.17;4.78;;;;;;;23.58;58.29;99360.98;1758068;80;21119;-85
2021/06/15 17:17:49;;;;;;;10.98;4.00;;;;;;;23.51;58.44;99373.34;1714305;81;21144;-89
2021/06/15 17:20:18;;;;;;;9.08;4.28;;;;;;;23.45;58.30;99366.98;1717573;81;21170;-85
2021/06/15 17:22:46;;;;;;;11.78;4.10;;;;;;;23.40;57.84;99365.84;1726694;80;21289;-82
2021/06/15 17:25:16;;;;;;;13.70;4.37;;;;;;;23.34;58.74;99361.06;1751030;82;21598;-85
2021/06/15 17:27:47;;;;;;;21.93;5.97;;;;;;;23.29;58.84;99357.12;1720780;81;21143;-79
2021/06/15 17:30:20;;;;;;;22.05;5.30;;;;;;;23.22;59.03;99369.48;1721271;81;21183;-80
2021/06/15 17:32:49;;;;;;;13.58;4.85;;;;;;;23.15;59.81;99365.88;1728364;81;21270;-80
2021/06/15 17:35:20;;;;;;;23.57;5.35;;;;;;;23.06;60.16;99369.40;1733173;81;21192;-81
2021/06/15 17:37:48;;;;;;;19.80;5.20;;;;;;;22.89;60.74;99358.52;1722837;81;21175;-80
2021/06/15 17:40:25;;;;;;;24.00;5.97;;;;;;;22.71;61.44;99357.14;1732926;81;21324;-80
2021/06/15 17:42:54;;;;;;;17.32;5.22;;;;;;;22.55;62.42;99361.75;1712762;83;21235;-79
2021/06/15 17:45:26;;;;;;;16.93;5.85;;;;;;;22.43;62.88;99365.95;1749741;80;21159;-78
2021/06/15 17:47:54;;;;;;;24.30;6.67;;;;;;;22.35;63.08;99365.47;1722195;83;21599;-80
2021/06/15 17:50:22;;;;;;;17.42;5.78;;;;;;;22.28;63.39;99369.42;1737941;80;21191;-81
2021/06/15 17:52:55;;;;;;;;;;;;;;;22.24;63.09;99372.69;1731416;82;21160;-79
2021/06/15 17:55:23;;;;;;;19.45;5.05;;;;;;;22.20;62.96;99370.34;1680091;82;20187;-77
2021/06/15 17:57:54;;;;;;;16.02;5.30;;;;;;;22.15;63.19;99375.56;1749871;82;21278;-77
2021/06/15 18:00:29;;;;;;;16.32;5.80;;;;;;;22.12;63.49;99365.92;1743018;81;21165;-76
2021/06/15 18:02:57;;;;;;;21.45;6.28;;;;;;;22.08;63.81;99363.61;1751505;82;21211;-75
2021/06/15 18:05:38;;;;;;;18.23;6.67;;;;;;;22.06;63.68;99367.90;1702574;83;21325;-75
2021/06/15 18:08:05;;;;;;;30.75;7.17;;;;;;;22.04;63.97;99364.05;1698479;82;21286;-76
2021/06/15 18:10:33;;;;;;;17.10;6.97;;;;;;;22.03;64.07;99365.80;1739114;82;21207;-77
2021/06/15 18:13:03;;;;;;;27.75;7.00;;;;;;;22.01;64.47;99367.52;1716332;82;21147;-74
2021/06/15 18:15:33;;;;;;;20.95;6.47;;;;;;;21.98;64.42;99364.05;1704162;82;21159;-74
2021/06/15 18:18:02;;;;;;;21.65;8.10;;;;;;;21.93;64.73;99364.27;1729608;83;21183;-74
2021/06/15 18:20:30;;;;;;;23.38;7.08;;;;;;;21.90;65.45;99358.56;1708372;81;21132;-75
2021/06/15 18:22:58;;;;;;;25.75;7.10;;;;;;;21.86;65.77;99365.39;1711489;83;21144;-75
2021/06/15 18:25:26;;;;;;;18.45;7.58;;;;;;;21.80;65.82;99363.16;1730720;81;21683;-76
2021/06/15 18:27:54;;;;;;;24.95;8.18;;;;;;;21.77;66.53;99380.55;1732218;82;21602;-77
2021/06/15 18:30:23;;;;;;;;;;;;;;;21.74;67.32;99375.66;1735121;81;21255;-76
2021/06/15 18:32:51;;;;;;;27.85;7.40;;;;;;;21.68;67.48;99371.48;1732097;81;20193;-75
2021/06/15 18:35:19;;;;;;;24.85;8.18;;;;;;;21.61;67.76;99374.80;1721412;81;21737;-83
2021/06/15 18:37:50;;;;;;;41.13;9.10;;;;;;;21.57;67.96;99371.09;1721521;81;21136;-75
2021/06/15 18:40:18;;;;;;;23.22;7.15;;;;;;;21.50;67.79;99375.02;1739109;80;21159;-76
2021/06/15 18:42:48;;;;;;;26.93;7.53;;;;;;;21.45;68.24;99369.66;1729283;81;21160;-76
2021/06/15 18:45:16;;;;;;;37.80;10.10;;;;;;;21.40;68.58;99376.22;1735710;81;21183;-75
2021/06/15 18:47:44;;;;;;;;;;;;;;;21.37;68.90;99382.50;1739530;81;21138;-75
2021/06/15 18:50:13;;;;;;;30.27;7.70;;;;;;;21.30;69.71;99382.81;1738287;81;20307;-75
2021/06/15 18:52:44;;;;;;;27.65;8.08;;;;;;;21.23;70.00;99381.13;1729098;81;21299;-84
2021/06/15 18:55:15;;;;;;;21.42;7.60;;;;;;;21.14;70.42;99377.04;1732756;81;21155;-84
2021/06/15 18:57:45;;;;;;;20.80;8.40;;;;;;;21.07;71.71;99384.30;1743513;80;21184;-83
2021/06/15 19:00:15;;;;;;;22.90;8.15;;;;;;;21.02;72.32;99379.73;1732652;81;21148;-86
2021/06/15 19:02:44;;;;;;;17.85;8.00;;;;;;;21.00;72.74;99388.17;1735355;80;21243;-84
2021/06/15 19:05:13;;;;;;;19.48;8.93;;;;;;;20.96;73.04;99385.81;1706761;81;21164;-84
2021/06/15 19:07:43;;;;;;;18.80;8.75;;;;;;;20.93;73.06;99390.08;1704136;81;21164;-85
2021/06/15 19:10:15;;;;;;;22.77;9.10;;;;;;;20.87;73.34;99389.46;1720158;80;21658;-77
2021/06/15 19:12:43;;;;;;;20.97;8.95;;;;;;;20.80;73.81;99385.02;1774942;80;21136;-76
2021/06/15 19:15:11;;;;;;;22.15;8.18;;;;;;;20.75;73.97;99383.81;1759705;80;21170;-77
2021/06/15 19:17:40;;;;;;;20.65;9.13;;;;;;;20.71;74.06;99381.48;1769537;80;21710;-79
2021/06/15 19:20:11;;;;;;;24.72;9.25;;;;;;;20.70;74.50;99388.18;1755237;80;21191;-79
2021/06/15 19:22:39;;;;;;;34.18;10.10;;;;;;;20.69;74.65;99382.97;1710692;81;21213;-77
2021/06/15 19:25:08;;;;;;;19.07;9.40;;;;;;;20.65;74.82;99375.86;1732662;81;21709;-79
2021/06/15 19:27:37;;;;;;;30.68;10.40;;;;;;;20.61;74.88;99373.53;1738291;82;21350;-80
2021/06/15 19:30:07;;;;;;;26.17;9.00;;;;;;;20.59;75.09;99371.63;1719364;80;21171;-82
2021/06/15 19:32:36;;;;;;;25.10;9.08;;;;;;;20.54;75.19;99366.87;1720727;82;21178;-80
2021/06/15 19:35:07;;;;;;;33.23;11.48;;;;;;;20.48;75.68;99366.80;1706837;82;21653;-81
2021/06/15 19:37:36;;;;;;;27.48;10.20;;;;;;;20.40;76.14;99369.88;1746997;80;21653;-81
2021/06/15 19:40:06;;;;;;;24.27;9.43;;;;;;;20.34;76.85;99361.47;1703945;82;21129;-82
2021/06/15 19:42:37;;;;;;;25.25;9.70;;;;;;;20.31;76.62;99366.90;1711270;83;21159;-81
2021/06/15 19:45:09;;;;;;;24.85;9.88;;;;;;;20.28;76.65;99365.60;1711964;81;21529;-81
2021/06/15 19:47:38;;;;;;;30.50;14.13;;;;;;;20.24;77.08;99382.11;1704018;83;21180;-82
2021/06/15 19:50:07;;;;;;;;;;;;;;;20.18;77.63;99376.48;1715912;81;21654;-81
2021/06/15 19:52:34;;;;;;;24.45;10.13;;;;;;;20.16;78.44;99387.70;1733695;81;20205;-81
2021/06/15 19:55:03;;;;;;;22.50;10.72;;;;;;;20.09;78.95;99388.19;1733682;83;21254;-83
2021/06/15 19:57:31;;;;;;;19.85;9.33;;;;;;;20.04;79.10;99390.33;1717886;81;21156;-81
2021/06/15 19:59:59;;;;;;;22.77;9.30;;;;;;;20.00;79.43;99395.75;1733212;82;21156;-81
2021/06/15 20:02:27;;;;;;;23.75;8.80;;;;;;;19.99;79.66;99398.84;1729661;80;21611;-81
2021/06/15 20:04:55;;;;;;;19.35;8.88;;;;;;;19.97;79.32;99391.42;1742697;81;21155;-80
2021/06/15 20:07:23;;;;;;;19.20;9.35;;;;;;;19.96;79.35;99396.16;1729535;82;21599;-78
2021/06/15 20:09:51;;;;;;;28.07;9.18;;;;;;;19.91;79.24;99396.33;1720197;83;21191;-78
2021/06/15 20:12:20;;;;;;;20.15;8.80;;;;;;;19.87;79.76;99402.88;1727129;82;21172;-79
2021/06/15 20:14:48;;;;;;;19.73;8.50;;;;;;;19.84;79.37;99397.41;1737495;82;21705;-84
2021/06/15 20:17:17;;;;;;;19.07;8.68;;;;;;;19.82;79.64;99403.05;1730784;81;21225;-84
2021/06/15 20:19:45;;;;;;;;;;;;;;;19.80;79.99;99405.35;1732538;81;21295;-77
2021/06/15 20:22:12;;;;;;;25.97;8.98;;;;;;;19.77;80.75;99410.17;1728370;81;20515;-83
2021/06/15 20:24:40;;;;;;;19.45;9.40;;;;;;;19.77;81.10;99412.95;1731441;81;21156;-81
2021/06/15 20:27:13;;;;;;;21.68;9.15;;;;;;;19.77;81.99;99417.94;1732509;81;21144;-79
2021/06/15 20:29:40;;;;;;;23.80;8.35;;;;;;;19.69;81.77;99409.61;1732796;82;21715;-77
2021/06/15 20:32:08;;;;;;;19.50;9.90;;;;;;;19.68;81.32;99409.38;1731862;81;21164;-79
2021/06/15 20:34:36;;;;;;;23.15;8.78;;;;;;;19.65;81.03;99412.24;1723872;81;21144;-78
2021/06/15 20:37:04;;;;;;;19.07;8.85;;;;;;;19.63;80.94;99415.33;1708335;81;21175;-79
2021/06/15 20:39:32;;;;;;;16.60;8.00;;;;;;;19.66;80.96;99410.29;1729704;81;21179;-84
2021/06/15 20:42:00;;;;;;;17.60;8.50;;;;;;;19.66;80.81;99406.13;1729546;81;21160;-85
2021/06/15 20:44:28;;;;;;;19.57;9.28;;;;;;;19.66;81.07;99404.73;1724681;81;21302;-74
2021/06/15 20:46:57;;;;;;;;;;;;;;;19.66;80.94;99399.19;1736743;81;21164;-74
2021/06/15 20:49:25;;;;;;;20.55;7.90;;;;;;;19.67;81.06;99391.08;1736286;81;20538;-81
2021/06/15 20:51:53;;;;;;;16.30;8.53;;;;;;;19.67;81.09;99391.91;1733048;81;21202;-84
2021/06/15 20:54:22;;;;;;;21.55;9.18;;;;;;;19.67;81.70;99427.17;1729061;81;21201;-84
2021/06/15 20:56:50;;;;;;;18.23;10.65;;;;;;;19.64;81.61;99430.03;1733183;81;21168;-75
2021/06/15 20:59:17;;;;;;;31.65;16.35;;;;;;;19.63;81.49;99430.59;1719569;81;21350;-75
2021/06/15 21:01:45;;;;;;;29.60;14.25;;;;;;;19.60;81.91;99425.73;1733005;81;21131;-76
2021/06/15 21:04:13;;;;;;;28.80;16.73;;;;;;;19.58;82.27;99425.22;1723525;80;21155;-76
2021/06/15 21:06:41;;;;;;;35.00;15.68;;;;;;;19.59;82.37;99417.14;1734948;82;21126;-75
2021/06/15 21:09:10;;;;;;;25.57;14.90;;;;;;;19.59;82.45;99408.81;1740515;80;21135;-74
2021/06/15 21:11:40;;;;;;;27.80;14.93;;;;;;;19.60;82.59;99417.97;1688864;82;21155;-73
2021/06/15 21:14:07;;;;;;;24.85;15.50;;;;;;;19.58;82.66;99419.66;1717542;82;21158;-75
2021/06/15 21:16:35;;;;;;;25.68;15.30;;;;;;;19.58;82.65;99421.65;1731960;80;21648;-74
2021/06/15 21:19:04;;;;;;;29.55;15.85;;;;;;;19.58;82.55;99409.16;1735400;80;21194;-74
2021/06/15 21:21:32;;;;;;;24.77;14.58;;;;;;;19.57;82.29;99395.02;1745743;80;21125;-74
2021/06/15 21:23:59;;;;;;;24.65;14.30;;;;;;;19.56;82.09;99394.77;1750879;81;21321;-74
2021/06/15 21:26:27;;;;;;;23.47;13.00;;;;;;;19.54;81.75;99393.72;1741702;80;21188;-74
2021/06/15 21:28:55;;;;;;;25.72;13.53;;;;;;;19.53;81.39;99394.84;1738415;80;21127;-77
2021/06/15 21:31:23;;;;;;;20.97;12.93;;;;;;;19.54;81.85;99396.49;1736275;81;21627;-79
2021/06/15 21:33:52;;;;;;;20.08;12.35;;;;;;;19.53;81.28;99389.30;1744674;82;21211;-80
2021/06/15 21:36:19;;;;;;;17.90;10.45;;;;;;;19.53;80.65;99392.07;1731328;80;21639;-72
2021/06/15 21:38:47;;;;;;;18.20;9.60;;;;;;;19.52;79.91;99383.52;1709157;82;21191;-80
2021/06/15 21:41:15;;;;;;;14.83;8.38;;;;;;;19.54;79.26;99379.84;1709257;81;21182;-78
2021/06/15 21:43:43;;;;;;;13.22;8.05;;;;;;;19.54;78.02;99382.61;1723693;82;21179;-79
2021/06/15 21:46:11;;;;;;;14.18;7.60;;;;;;;19.57;78.20;99379.19;1715387;82;21684;-79
2021/06/15 21:54:52;;;;;;;14.13;8.10;;;;;;;19.62;77.06;99397.06;1813082;77;32312;-74
2021/06/15 21:57:19;;;;;;;14.38;7.62;;;;;;;19.60;77.06;99401.31;1758240;80;21096;-74
2021/06/15 21:59:47;;;;;;;14.60;7.20;;;;;;;19.61;76.97;99402.36;1746673;81;21144;-80
2021/06/15 22:02:15;;;;;;;12.30;6.83;;;;;;;19.60;76.81;99399.36;1754678;80;21575;-79
2021/06/15 22:04:43;;;;;;;15.50;7.28;;;;;;;19.61;76.52;99393.20;1746113;80;21155;-75
2021/06/15 22:07:11;;;;;;;14.20;7.17;;;;;;;19.60;76.39;99396.58;1736491;82;21159;-73
2021/06/15 22:09:39;;;;;;;13.30;7.78;;;;;;;19.59;76.24;99393.55;1730626;80;21140;-76
2021/06/15 22:12:08;;;;;;;15.08;7.75;;;;;;;19.57;76.89;99394.45;1745745;82;21123;-72
2021/06/15 22:14:36;;;;;;;15.50;7.75;;;;;;;19.54;76.93;99390.12;1727421;81;21200;-76
2021/06/15 22:17:05;;;;;;;16.30;7.87;;;;;;;19.52;76.65;99390.46;1717385;83;21216;-79
2021/06/15 22:19:35;;;;;;;11.10;6.20;;;;;;;19.53;76.15;99392.07;1694403;82;21168;-78
2021/06/15 22:22:03;;;;;;;10.88;6.17;;;;;;;19.53;75.76;99386.52;1719192;83;21407;-77
2021/06/15 22:24:34;;;;;;;12.23;6.80;;;;;;;19.55;75.55;99381.48;1704396;82;21168;-72
2021/06/15 22:27:02;;;;;;;11.85;5.35;;;;;;;19.56;75.68;99384.48;1689802;83;21605;-78
2021/06/15 22:29:30;;;;;;;9.50;5.47;;;;;;;19.57;75.03;99381.14;1706534;82;21125;-78
2021/06/15 22:31:58;;;;;;;6.85;5.30;;;;;;;19.57;75.03;99388.08;1679770;83;21178;-78
2021/06/15 22:34:26;;;;;;;8.98;4.62;;;;;;;19.57;75.08;99386.13;1681055;82;21124;-76
2021/06/15 22:36:54;;;;;;;;;;;;;;;19.59;75.01;99383.01;1694901;84;21585;-77
2021/06/15 22:39:21;;;;;;;9.10;5.03;;;;;;;19.58;75.14;99384.96;1714728;82;20248;-78
2021/06/15 22:41:50;;;;;;;10.85;4.92;;;;;;;19.58;75.28;99390.52;1718642;83;21475;-78
2021/06/15 22:44:18;;;;;;;7.37;4.80;;;;;;;19.52;75.15;99385.47;1719014;83;21192;-78
2021/06/15 22:46:47;;;;;;;8.00;4.70;;;;;;;19.52;75.35;99392.41;1681175;82;21598;-79
2021/06/15 22:49:15;;;;;;;7.53;4.55;;;;;;;19.50;75.58;99392.75;1678258;85;21155;-79
2021/06/15 22:51:43;;;;;;;7.95;4.62;;;;;;;19.49;75.49;99399.44;1692061;82;21137;-80
2021/06/15 22:54:12;;;;;;;8.83;4.85;;;;;;;19.47;75.33;99398.13;1709399;84;21278;-79
2021/06/15 22:56:43;;;;;;;12.40;5.08;;;;;;;19.44;75.57;99394.05;1670110;84;21192;-78
2021/06/15 22:59:11;;;;;;;10.70;4.90;;;;;;;19.41;75.89;99394.70;1690431;84;21284;-78
2021/06/15 23:01:39;;;;;;;7.55;5.37;;;;;;;19.36;76.30;99393.45;1690395;82;21224;-78
2021/06/15 23:04:09;;;;;;;8.80;4.65;;;;;;;19.36;76.30;99393.45;1706593;83;21629;-78
2021/06/15 23:06:37;;;;;;;10.63;4.97;;;;;;;19.35;75.89;99395.17;1665956;83;21275;-78
2021/06/15 23:09:05;;;;;;;9.50;5.53;;;;;;;19.36;76.08;99398.17;1713940;83;21157;-74
2021/06/15 23:11:33;;;;;;;7.67;5.12;;;;;;;19.36;76.20;99398.17;1706150;82;21125;-74
2021/06/15 23:14:01;;;;;;;7.65;5.25;;;;;;;19.34;76.37;99401.30;1671622;85;21191;-74
2021/06/15 23:16:29;;;;;;;9.90;4.93;;;;;;;19.33;76.62;99407.15;1687233;82;21607;-74
2021/06/15 23:18:56;;;;;;;11.33;5.00;;;;;;;19.31;76.37;99408.05;1700186;83;21176;-74
2021/06/15 23:21:25;;;;;;;8.65;4.90;;;;;;;19.28;76.35;99410.91;1697127;83;21332;-74
2021/06/15 23:23:53;;;;;;;8.43;5.10;;;;;;;19.23;76.64;99406.91;1689701;82;21170;-74
2021/06/15 23:26:22;;;;;;;7.53;5.10;;;;;;;19.18;76.70;99401.52;1689575;84;21212;-74
2021/06/15 23:28:50;;;;;;;8.10;4.97;;;;;;;19.17;76.76;99398.52;1710743;82;21636;-74
2021/06/15 23:31:19;;;;;;;7.20;4.70;;;;;;;19.15;76.90;99396.63;1718473;83;21169;-74
2021/06/15 23:33:47;;;;;;;7.58;4.65;;;;;;;19.15;76.89;99398.01;1700183;82;21168;-74
2021/06/15 23:36:14;;;;;;;10.75;5.05;;;;;;;19.16;76.85;99397.44;1690005;84;21729;-74
2021/06/15 23:38:42;;;;;;;6.62;4.92;;;;;;;19.17;76.99;99405.45;1694641;82;21272;-74
2021/06/15 23:41:10;;;;;;;8.75;5.00;;;;;;;19.18;76.89;99409.84;1697739;83;21176;-74
2021/06/15 23:43:39;;;;;;;9.88;4.85;;;;;;;19.17;77.06;99406.02;1724751;81;21152;-74
2021/06/15 23:46:06;;;;;;;7.62;4.75;;;;;;;19.16;77.26;99411.31;1707172;83;21192;-79
2021/06/15 23:48:35;;;;;;;9.95;5.00;;;;;;;19.14;77.57;99416.38;1697050;83;21279;-79
2021/06/15 23:51:03;;;;;;;8.70;5.20;;;;;;;19.13;77.52;99414.16;1704360;83;21173;-79
2021/06/15 23:56:17;;;;;;;11.78;4.97;;;;;;;19.17;78.10;99415.16;1809686;77;22163;-79
2021/06/15 23:58:44;;;;;;;10.03;5.28;;;;;;;19.14;77.97;99411.65;1749855;78;21161;-79
